Portada
METAR-TAF:

METAR-TAF

Aeropuertos :

Aeropuerto Internacional Eleftherios Venizelos

Atenas, Grecia

latitud: 37-56N, longitud: 023-56E, altitud: 94 m

Observación

El informe se hizo hace 10 horas y 29 minutos, a las 05:20 UTC
Viento 11 kt del norte
Temperatura 25°C
Humedad 54%
Presión 1012 hPa
Visibilidad 10 km o más
sin nubes por debajo de 1500 m y sin presencia de cumulonimbus.

METAR: LGAV 210520Z 01011KT CAVOK 25/15 Q1012 NOSIG

Hora: 18:49 (15:49 UTC)

Pronóstico

El informe se hizo hace 10 horas y 49 minutos, a las 05:00 UTC
Pronóstico válido del 21 a las 06 UTC al 22 a las 06 UTC
Viento 15 kt del norte
Visibilidad 10 km o más
Escasas nubes a una altura de 2500 ft
Temporalmente
del 21 a las 06 UTC al 21 a las 16 UTC
Viento 20 kt del norte con ráfagas de 30 kt

TAF: LGAV 210500Z 2106/2206 36015KT 9999 FEW025 TEMPO 2106/2116 36020G30KT

Observaciones y pronósticos meteorológicos de más de 4000 aeropuertos (mensajes METAR y TAF).

Los puntos amarillos y rojos representan las estaciones disponibles.

Ponga el ratón en el punto deseado para ver el nombre de la estación.

Haga clic para ver las observaciones y los pronósticos meteorológicos.

Para cambiar el mapa : haga clic en los botones verdes con una cruz de color negro para hacer un zoom, en el botón verde con un guión para alejar o en las flechas verdes para mapas adyacentes.


METAR-TAF: